Time;durP1;ratioP1;P1;durP2;ratioP2;P2;SDS_P1;SDS_P2;PMS_P1;PMS_P2;Temp;Humidity;BMP_temperature;BMP_pressure;BME280_temperature;BME280_humidity;BME280_pressure;Samples;Min_cycle;Max_cycle;Signal;HPM_P1;HPM_P2
2022/06/19 00:01:04;;;;;;;10.60;4.78;;;;;;;17.90;98.00;94924.31;5073483;28;20205;-63
2022/06/19 00:03:32;;;;;;;5.28;4.63;;;;;;;17.76;99.29;94917.28;5072696;28;20678;-63
2022/06/19 00:05:59;;;;;;;6.20;5.00;;;;;;;17.84;98.84;94928.34;5073302;28;20265;-63
2022/06/19 00:08:26;;;;;;;4.72;4.32;;;;;;;17.88;99.00;94927.06;5071916;28;20173;-63
2022/06/19 00:10:51;;;;;;;6.47;5.43;;;;;;;17.87;99.31;94925.47;5072702;28;20205;-60
2022/06/19 00:13:17;;;;;;;5.45;4.85;;;;;;;17.86;99.51;94926.41;5072876;28;20181;-64
2022/06/19 00:15:42;;;;;;;10.23;6.32;;;;;;;17.85;100.00;94916.31;5072979;28;20674;-61
2022/06/19 00:18:08;;;;;;;8.90;5.35;;;;;;;17.78;100.00;94903.31;5072759;28;20658;-64
2022/06/19 00:20:33;;;;;;;6.72;5.32;;;;;;;17.88;100.00;94919.34;5073282;28;20709;-61
2022/06/19 00:22:59;;;;;;;8.45;6.03;;;;;;;17.79;100.00;94919.53;5071344;28;20658;-64
2022/06/19 00:25:24;;;;;;;7.68;5.05;;;;;;;17.78;100.00;94916.16;5072905;28;20193;-61
2022/06/19 00:27:50;;;;;;;7.68;5.13;;;;;;;17.86;100.00;94926.41;5072729;28;20284;-63
2022/06/19 00:30:15;;;;;;;8.25;5.43;;;;;;;17.87;100.00;94925.47;5071418;28;20782;-65
2022/06/19 00:32:41;;;;;;;7.65;5.22;;;;;;;17.78;100.00;94923.06;5072524;28;20173;-62
2022/06/19 00:35:08;;;;;;;6.90;5.63;;;;;;;17.65;100.00;94910.75;5072584;28;20207;-65
2022/06/19 00:37:34;;;;;;;9.82;5.65;;;;;;;17.72;100.00;94916.84;5070372;28;20185;-61
2022/06/19 00:40:00;;;;;;;9.13;5.68;;;;;;;17.73;100.00;94923.59;5072628;28;20201;-61
2022/06/19 00:42:26;;;;;;;7.28;5.53;;;;;;;17.76;100.00;94920.69;5072373;28;20225;-65
2022/06/19 00:44:52;;;;;;;7.47;6.00;;;;;;;17.73;100.00;94913.31;5072154;28;20201;-63
2022/06/19 00:47:21;;;;;;;7.93;5.60;;;;;;;17.81;100.00;94923.56;5072349;28;20694;-61
2022/06/19 00:49:53;;;;;;;9.23;5.80;;;;;;;17.99;100.00;94929.28;5077364;23;20247;-61
2022/06/19 00:52:23;;;;;;;6.68;5.90;;;;;;;17.74;100.00;94919.22;5072231;28;20211;-65
2022/06/19 00:55:00;;;;;;;8.38;5.70;;;;;;;17.63;100.00;94918.63;5072183;28;20718;-64
2022/06/19 00:57:28;;;;;;;9.10;5.70;;;;;;;17.58;100.00;94925.25;5077429;23;20676;-65
2022/06/19 01:00:16;;;;;;;9.30;5.85;;;;;;;17.52;100.00;94924.13;5072325;28;20563;-65
2022/06/19 01:02:43;;;;;;;6.40;5.40;;;;;;;17.59;100.00;94930.22;5072455;28;20173;-61
2022/06/19 01:05:16;;;;;;;8.45;5.13;;;;;;;17.54;100.00;94929.91;5071924;28;20204;-62
2022/06/19 01:07:44;;;;;;;5.85;5.30;;;;;;;17.47;100.00;94925.56;5072077;28;20276;-66
2022/06/19 01:10:12;;;;;;;7.45;5.30;;;;;;;17.52;100.00;94925.91;5071928;28;20197;-60
2022/06/19 01:12:40;;;;;;;5.68;5.10;;;;;;;17.54;100.00;94922.19;5072314;28;20185;-63
2022/06/19 01:15:09;;;;;;;7.22;5.20;;;;;;;17.80;100.00;94928.84;5072120;28;20208;-64
2022/06/19 01:17:35;;;;;;;9.18;5.78;;;;;;;17.78;100.00;94929.03;5072081;28;20605;-66
2022/06/19 01:20:04;;;;;;;8.20;5.10;;;;;;;17.54;100.00;94919.63;5070489;28;20296;-63
2022/06/19 01:23:07;;;;;;;5.72;5.22;;;;;;;17.35;100.00;94917.38;5071723;28;20212;-63
2022/06/19 01:25:35;;;;;;;6.65;5.32;;;;;;;17.56;100.00;94922.84;5069465;28;20212;-63
2022/06/19 01:30:53;;;;;;;6.20;4.97;;;;;;;17.48;100.00;94937.44;5071951;28;20751;-64
2022/06/19 01:33:22;;;;;;;7.28;4.57;;;;;;;17.35;100.00;94929.47;5071854;28;20175;-63
2022/06/19 01:35:50;;;;;;;7.22;4.20;;;;;;;17.08;100.00;94927.25;5070337;28;20204;-65
2022/06/19 01:38:19;;;;;;;5.63;4.32;;;;;;;16.89;100.00;94917.31;5071892;28;20185;-64
2022/06/19 01:40:51;;;;;;;5.10;4.63;;;;;;;16.85;100.00;94918.63;5071864;28;20205;-64
2022/06/19 01:43:18;;;;;;;5.15;4.53;;;;;;;16.66;100.00;94922.28;5072004;28;20185;-64
2022/06/19 01:45:52;;;;;;;5.38;4.25;;;;;;;16.54;100.00;94919.22;5071458;28;20254;-65
2022/06/19 01:48:19;;;;;;;4.88;4.38;;;;;;;16.31;100.00;94919.97;5072017;28;20247;-60
2022/06/19 01:50:46;;;;;;;6.47;4.07;;;;;;;16.40;100.00;94917.25;5075866;28;20702;-64
2022/06/19 01:53:26;;;;;;;4.47;4.03;;;;;;;16.37;100.00;94922.72;5081383;23;20258;-62
2022/06/19 01:55:52;;;;;;;6.63;4.00;;;;;;;16.24;100.00;94927.47;5074246;28;20310;-64
2022/06/19 01:58:20;;;;;;;4.75;3.83;;;;;;;16.34;100.00;94928.16;5075699;28;20664;-63
2022/06/19 02:00:48;;;;;;;5.72;3.53;;;;;;;16.48;100.00;94914.69;5073941;28;20196;-60
2022/06/19 02:03:29;;;;;;;7.88;4.85;;;;;;;16.49;100.00;94921.47;5075638;28;20189;-64
2022/06/19 02:05:56;;;;;;;6.43;3.97;;;;;;;16.59;100.00;94924.69;5075546;28;20196;-64
2022/06/19 02:08:22;;;;;;;4.82;4.38;;;;;;;16.72;100.00;94930.13;5075444;28;20238;-63
2022/06/19 02:10:48;;;;;;;6.97;4.28;;;;;;;16.94;100.00;94933.03;5075250;28;20201;-63
2022/06/19 02:13:16;;;;;;;6.68;4.00;;;;;;;16.99;100.00;94944.44;5074103;28;20245;-60
2022/06/19 02:15:44;;;;;;;8.88;4.55;;;;;;;16.86;100.00;94931.28;5080576;23;20403;-62
2022/06/19 02:18:15;;;;;;;4.57;4.10;;;;;;;16.48;100.00;94904.44;5075044;28;20682;-63
2022/06/19 02:20:42;;;;;;;4.75;4.07;;;;;;;16.67;100.00;94942.66;5075151;28;20189;-60
2022/06/19 02:23:07;;;;;;;7.40;4.13;;;;;;;16.41;100.00;94939.41;5075085;28;20185;-66
2022/06/19 02:25:35;;;;;;;7.35;3.90;;;;;;;16.41;100.00;94939.41;5074895;28;20185;-64
2022/06/19 02:28:03;;;;;;;6.07;3.88;;;;;;;16.43;100.00;94941.78;5056784;28;20208;-64
2022/06/19 02:30:29;;;;;;;5.55;4.15;;;;;;;16.50;100.00;94941.03;5056803;28;20200;-64
2022/06/19 02:32:55;;;;;;;4.78;4.22;;;;;;;16.55;100.00;94935.44;5074950;28;20185;-64
2022/06/19 02:35:24;;;;;;;7.55;4.47;;;;;;;16.89;100.00;94956.63;5075220;28;20205;-61
2022/06/19 02:37:52;;;;;;;4.28;3.88;;;;;;;16.71;100.00;94936.25;5080906;22;20229;-62
2022/06/19 02:40:33;;;;;;;4.50;4.00;;;;;;;16.80;100.00;94939.63;5073562;28;20295;-62
2022/06/19 02:42:58;;;;;;;7.32;3.95;;;;;;;16.81;100.00;94955.84;5075786;28;20193;-65
2022/06/19 02:45:29;;;;;;;5.90;3.67;;;;;;;16.53;100.00;94958.69;5075058;28;20197;-65
2022/06/19 02:47:58;;;;;;;4.72;4.25;;;;;;;16.32;100.00;94960.06;5074870;28;20251;-60
2022/06/19 02:50:28;;;;;;;4.13;3.72;;;;;;;16.19;100.00;94944.31;5074855;28;20242;-65
2022/06/19 02:52:54;;;;;;;4.28;3.58;;;;;;;16.08;100.00;94942.84;5074521;28;20177;-65
2022/06/19 02:55:20;;;;;;;7.13;3.72;;;;;;;16.08;100.00;94947.97;5074421;28;20212;-64
2022/06/19 02:57:46;;;;;;;6.15;4.00;;;;;;;15.88;100.00;94944.06;5074707;28;20184;-64
2022/06/19 03:00:16;;;;;;;3.83;3.53;;;;;;;15.92;100.00;94950.47;5072130;28;20197;-60
2022/06/19 03:02:42;;;;;;;3.83;3.40;;;;;;;15.95;100.00;94948.44;5073172;28;20192;-61
2022/06/19 03:05:16;;;;;;;6.32;4.00;;;;;;;16.16;100.00;94962.59;5072870;28;20598;-64
2022/06/19 03:07:42;;;;;;;6.28;3.72;;;;;;;16.24;100.00;94965.97;5072810;28;20291;-64
2022/06/19 03:10:09;;;;;;;6.00;3.78;;;;;;;16.26;100.00;94960.69;5074238;28;20223;-65
2022/06/19 03:12:34;;;;;;;5.10;4.05;;;;;;;16.24;100.00;94965.97;5074513;28;20240;-65
2022/06/19 03:15:00;;;;;;;4.22;3.50;;;;;;;16.35;100.00;94975.16;5074035;28;20227;-65
2022/06/19 03:17:25;;;;;;;4.35;3.55;;;;;;;16.44;100.00;94975.00;5074175;28;20181;-65
2022/06/19 03:19:51;;;;;;;7.65;3.97;;;;;;;16.42;100.00;94966.66;5074327;28;20203;-61
2022/06/19 03:22:16;;;;;;;4.25;3.58;;;;;;;16.82;100.00;95001.91;5074181;28;20546;-65
2022/06/19 03:24:41;;;;;;;5.60;4.45;;;;;;;16.58;100.00;94992.38;5073733;28;20205;-65
2022/06/19 03:27:07;;;;;;;7.15;4.43;;;;;;;16.22;100.00;94975.59;5074095;28;20216;-60
2022/06/19 03:29:33;;;;;;;6.53;4.13;;;;;;;16.13;100.00;94975.72;5074047;28;20200;-63
2022/06/19 03:31:59;;;;;;;5.85;3.70;;;;;;;16.03;100.00;94968.16;5072508;28;20189;-60
2022/06/19 03:34:25;;;;;;;5.07;4.00;;;;;;;16.13;100.00;94979.09;5073647;28;20624;-63
2022/06/19 03:36:51;;;;;;;8.63;4.03;;;;;;;16.05;100.00;94971.38;5073916;28;20715;-66
2022/06/19 03:39:17;;;;;;;6.03;4.10;;;;;;;16.09;100.00;94961.59;5073689;28;20191;-64
2022/06/19 03:41:43;;;;;;;5.20;4.18;;;;;;;16.28;100.00;94974.19;5073830;28;20693;-64
2022/06/19 03:44:09;;;;;;;12.57;4.10;;;;;;;16.37;100.00;94989.44;5075162;28;20173;-64
2022/06/19 03:46:35;;;;;;;4.88;4.13;;;;;;;16.20;100.00;94982.63;5073491;28;20216;-61
2022/06/19 03:49:01;;;;;;;4.55;3.85;;;;;;;15.91;100.00;94956.56;5073944;28;20177;-65
2022/06/19 03:51:27;;;;;;;3.75;3.35;;;;;;;15.95;100.00;94981.75;5073057;28;20223;-64
2022/06/19 03:53:54;;;;;;;5.00;3.25;;;;;;;16.01;100.00;94982.09;5073149;28;20209;-65
2022/06/19 03:56:29;;;;;;;3.58;3.28;;;;;;;15.85;100.00;94973.38;5071928;28;20224;-64
2022/06/19 03:58:54;;;;;;;3.92;3.28;;;;;;;15.77;100.00;94964.84;5073254;28;20673;-65
2022/06/19 04:01:23;;;;;;;4.30;3.60;;;;;;;15.79;100.00;94958.63;5073034;28;20230;-61
2022/06/19 04:03:51;;;;;;;3.60;3.28;;;;;;;15.70;100.00;94956.16;5072923;28;20653;-67
2022/06/19 04:06:18;;;;;;;8.48;4.07;;;;;;;15.67;100.00;94959.03;5072871;28;20235;-65
2022/06/19 04:08:47;;;;;;;4.03;3.72;;;;;;;15.73;100.00;94958.44;5071660;28;20217;-61
2022/06/19 04:11:14;;;;;;;4.53;3.92;;;;;;;15.62;100.00;94962.06;5072740;28;20205;-64
2022/06/19 04:13:40;;;;;;;3.90;3.33;;;;;;;15.78;100.00;94956.19;5072870;28;20172;-64
2022/06/19 04:16:07;;;;;;;5.30;3.90;;;;;;;16.04;100.00;94977.44;5054847;28;20596;-65
2022/06/19 04:18:33;;;;;;;6.30;3.33;;;;;;;16.15;100.00;94981.50;5071462;28;20179;-61
2022/06/19 04:21:00;;;;;;;4.00;3.60;;;;;;;16.09;100.00;94974.44;5072635;28;20339;-63
2022/06/19 04:23:27;;;;;;;3.38;3.08;;;;;;;16.09;100.00;94977.81;5072805;28;20181;-65
2022/06/19 04:25:53;;;;;;;3.08;2.88;;;;;;;16.09;100.00;94989.81;5071441;28;20200;-65
2022/06/19 04:28:22;;;;;;;4.38;3.13;;;;;;;15.91;100.00;94979.66;5073241;28;20219;-65
2022/06/19 04:30:49;;;;;;;3.70;3.40;;;;;;;15.77;100.00;94970.78;5072741;28;20201;-64
2022/06/19 04:33:16;;;;;;;3.50;3.20;;;;;;;15.69;100.00;94973.31;5073296;28;20268;-64
2022/06/19 04:35:42;;;;;;;6.32;3.47;;;;;;;15.66;100.00;94970.22;5072841;28;20252;-60
2022/06/19 04:38:08;;;;;;;2.72;2.53;;;;;;;15.81;100.00;94977.22;5072392;28;20627;-64
2022/06/19 04:40:35;;;;;;;4.50;3.17;;;;;;;16.06;100.00;94980.66;5072544;28;20236;-63
2022/06/19 04:43:01;;;;;;;6.00;3.55;;;;;;;16.27;100.00;94993.91;5072674;28;20185;-63
2022/06/19 04:45:26;;;;;;;3.30;3.00;;;;;;;16.24;100.00;94981.34;5072174;28;20204;-64
2022/06/19 04:47:52;;;;;;;6.47;3.80;;;;;;;16.27;100.00;94983.63;5071166;28;20217;-60
2022/06/19 04:50:17;;;;;;;4.35;3.38;;;;;;;16.22;100.00;94975.59;5072530;28;20318;-65
2022/06/19 04:52:43;;;;;;;5.93;3.58;;;;;;;16.46;100.00;94992.81;5072745;28;20181;-64
2022/06/19 04:55:11;;;;;;;4.85;3.50;;;;;;;16.43;100.00;94988.81;5072028;28;20193;-64
2022/06/19 04:57:36;;;;;;;5.03;3.65;;;;;;;16.36;100.00;94987.03;5072412;28;20566;-65
2022/06/19 05:00:04;;;;;;;3.80;3.50;;;;;;;16.29;100.00;94978.34;5070731;28;20189;-64
2022/06/19 05:02:30;;;;;;;3.58;3.28;;;;;;;16.53;100.00;94984.38;5071782;28;20181;-65
2022/06/19 05:04:55;;;;;;;4.18;3.78;;;;;;;16.70;100.00;95006.53;5071952;28;20207;-61
2022/06/19 05:07:21;;;;;;;3.92;3.63;;;;;;;16.59;100.00;94990.63;5072168;28;20251;-64
2022/06/19 05:09:46;;;;;;;3.83;3.53;;;;;;;16.72;100.00;95002.03;5071374;28;20201;-61
2022/06/19 05:12:12;;;;;;;4.60;3.58;;;;;;;16.90;100.00;94978.78;5072190;28;20205;-62
2022/06/19 05:14:40;;;;;;;4.28;3.63;;;;;;;17.20;100.00;94982.47;5071000;28;20254;-65
2022/06/19 05:17:05;;;;;;;4.75;4.20;;;;;;;17.31;100.00;95020.72;5072161;28;20177;-62
2022/06/19 05:19:31;;;;;;;5.15;4.15;;;;;;;17.60;100.00;94995.28;5070540;28;20196;-65
2022/06/19 05:22:00;;;;;;;4.88;4.25;;;;;;;17.69;100.00;94978.91;5072158;28;20189;-66
2022/06/19 05:24:26;;;;;;;4.35;4.00;;;;;;;18.18;100.00;94990.59;5071199;28;20197;-65
2022/06/19 05:26:52;;;;;;;3.72;3.42;;;;;;;18.58;100.00;94991.41;5071614;28;20220;-67
2022/06/19 05:29:18;;;;;;;5.18;3.53;;;;;;;19.01;100.00;95003.66;5071751;28;20209;-62
2022/06/19 05:31:44;;;;;;;7.28;4.60;;;;;;;19.08;100.00;95020.88;5071874;28;20673;-66
2022/06/19 05:34:09;;;;;;;7.32;5.35;;;;;;;19.08;95.09;95093.03;5072727;28;20214;-66
2022/06/19 05:36:34;;;;;;;8.15;5.20;;;;;;;18.91;96.39;95075.25;5071743;28;20526;-62
2022/06/19 05:39:19;;;;;;;7.25;5.35;;;;;;;18.76;100.00;95021.09;5072152;28;20195;-62
2022/06/19 05:41:44;;;;;;;5.60;4.93;;;;;;;18.58;98.04;95042.91;5072070;28;20185;-62
2022/06/19 05:44:11;;;;;;;7.32;4.85;;;;;;;18.58;100.00;95042.91;5070330;28;20684;-65
2022/06/19 05:46:36;;;;;;;5.43;4.68;;;;;;;18.55;99.69;95043.25;5071780;28;20588;-66
2022/06/19 05:49:02;;;;;;;5.13;4.35;;;;;;;18.33;100.00;95024.97;5071714;28;20173;-66
2022/06/19 05:51:28;;;;;;;5.90;4.50;;;;;;;18.42;100.00;95020.59;5071691;28;20185;-65
2022/06/19 05:53:56;;;;;;;4.90;4.45;;;;;;;18.65;100.00;94980.25;5070050;28;20235;-65
2022/06/19 05:56:24;;;;;;;6.85;4.32;;;;;;;19.22;100.00;95007.22;5070150;28;20303;-66
2022/06/19 05:58:49;;;;;;;5.05;4.60;;;;;;;19.86;100.00;95025.66;5071810;28;20188;-66
2022/06/19 06:01:16;;;;;;;6.60;5.05;;;;;;;20.04;100.00;95021.75;5071496;28;20189;-61
2022/06/19 06:03:42;;;;;;;6.15;5.07;;;;;;;20.50;98.57;95039.66;5071413;28;20183;-66
2022/06/19 06:06:13;;;;;;;8.18;4.75;;;;;;;20.98;94.54;95079.56;5071378;28;20209;-64
2022/06/19 06:08:38;;;;;;;6.00;4.47;;;;;;;21.10;89.80;95115.13;5071607;28;20592;-66
2022/06/19 06:11:05;;;;;;;7.93;5.07;;;;;;;21.02;84.43;95146.28;5076933;23;20221;-67
2022/06/19 06:13:30;;;;;;;5.45;4.68;;;;;;;20.73;86.35;95113.47;5071582;28;20265;-66
2022/06/19 06:15:57;;;;;;;6.95;5.38;;;;;;;20.39;86.79;95094.34;5071274;28;20659;-66
2022/06/19 06:18:22;;;;;;;4.45;4.05;;;;;;;19.82;94.06;94988.28;5071352;28;20189;-65
2022/06/19 06:21:00;;;;;;;10.45;6.53;;;;;;;20.06;95.76;95032.72;5076644;23;20224;-65
2022/06/19 06:23:26;;;;;;;7.05;5.30;;;;;;;19.97;94.60;95018.31;5053345;28;20173;-66
2022/06/19 06:26:03;;;;;;;6.20;4.40;;;;;;;20.19;94.59;95041.59;5071354;28;20637;-63
2022/06/19 06:28:29;;;;;;;6.10;4.70;;;;;;;20.10;94.25;95026.22;5071407;28;20654;-66
2022/06/19 06:30:55;;;;;;;4.78;4.32;;;;;;;20.28;88.92;95100.75;5071102;28;20213;-65
2022/06/19 06:33:20;;;;;;;4.97;4.47;;;;;;;20.08;89.12;95082.38;5053140;28;20181;-63
2022/06/19 06:35:46;;;;;;;5.43;4.60;;;;;;;19.87;89.87;95063.41;5072537;28;20213;-65
2022/06/19 06:38:12;;;;;;;6.88;4.63;;;;;;;19.67;95.99;94995.25;5074707;28;20276;-66
2022/06/19 06:40:37;;;;;;;5.80;4.00;;;;;;;19.74;90.68;95065.78;5075277;28;20205;-62
2022/06/19 06:43:03;;;;;;;5.72;3.92;;;;;;;19.71;88.39;95084.22;5074594;28;20184;-64
2022/06/19 06:45:28;;;;;;;4.22;3.70;;;;;;;19.78;93.98;95023.97;5056439;28;20231;-64
2022/06/19 06:47:53;;;;;;;5.72;4.07;;;;;;;20.06;95.60;95009.47;5074346;28;20205;-64
2022/06/19 06:50:19;;;;;;;4.03;3.45;;;;;;;20.32;88.70;95081.34;5074845;28;20201;-65
2022/06/19 06:52:45;;;;;;;5.82;4.47;;;;;;;20.26;91.40;95038.16;5074584;28;20216;-65
2022/06/19 06:55:11;;;;;;;4.22;3.17;;;;;;;20.22;86.09;95098.88;5074329;28;20204;-66
2022/06/19 06:57:37;;;;;;;3.05;2.60;;;;;;;20.40;81.44;95173.47;5074611;28;20251;-62
2022/06/19 07:00:04;;;;;;;3.38;3.08;;;;;;;20.56;84.33;95108.69;5074409;28;20702;-65
2022/06/19 07:02:30;;;;;;;3.85;3.38;;;;;;;20.89;85.52;95087.44;5074332;28;20173;-65
2022/06/19 07:04:55;;;;;;;3.80;3.47;;;;;;;21.31;78.51;95192.75;5056197;28;20553;-64
2022/06/19 07:07:21;;;;;;;3.10;2.50;;;;;;;21.22;76.99;95187.88;5079828;23;20240;-63
2022/06/19 07:09:46;;;;;;;3.03;2.25;;;;;;;21.17;71.09;95266.00;5074558;28;20195;-63
2022/06/19 07:12:11;;;;;;;2.40;2.20;;;;;;;20.92;69.91;95246.56;5074610;28;20635;-64
2022/06/19 07:14:37;;;;;;;2.88;2.40;;;;;;;20.63;71.66;95184.50;5074090;28;20188;-64
2022/06/19 07:17:03;;;;;;;2.97;2.13;;;;;;;20.63;71.65;95195.66;5074674;28;20192;-64
2022/06/19 07:19:28;;;;;;;1.80;1.70;;;;;;;20.66;69.38;95230.69;5074197;28;20211;-63
2022/06/19 07:21:54;;;;;;;2.00;1.90;;;;;;;20.44;69.92;95196.16;5074341;28;20255;-64
2022/06/19 07:24:19;;;;;;;2.85;2.22;;;;;;;20.54;70.07;95199.28;5074118;28;20259;-63
2022/06/19 07:26:45;;;;;;;1.70;1.60;;;;;;;20.54;67.49;95245.78;5072848;28;20386;-61
2022/06/19 07:29:11;;;;;;;1.60;1.50;;;;;;;20.63;65.10;95277.53;5072618;28;20179;-65
2022/06/19 07:31:36;;;;;;;1.60;1.50;;;;;;;20.72;64.44;95258.41;5072546;28;20185;-62
2022/06/19 07:34:03;;;;;;;4.60;2.13;;;;;;;20.70;65.62;95231.94;5073624;28;20260;-65
2022/06/19 07:36:28;;;;;;;3.80;1.70;;;;;;;20.79;63.96;95254.09;5073564;28;20187;-62
2022/06/19 07:38:54;;;;;;;2.00;1.75;;;;;;;20.89;65.60;95205.53;5073409;28;20613;-60
2022/06/19 07:41:19;;;;;;;1.90;1.73;;;;;;;21.03;67.73;95160.78;5073509;28;20233;-61
2022/06/19 07:43:46;;;;;;;2.00;1.70;;;;;;;21.06;61.52;95304.44;5073330;28;20208;-62
2022/06/19 07:46:12;;;;;;;2.38;1.67;;;;;;;21.07;64.13;95224.09;5071700;28;20329;-60
2022/06/19 07:51:28;;;;;;;4.88;2.30;;;;;;;20.97;63.91;95215.78;5073839;28;20658;-64
2022/06/19 07:53:53;;;;;;;3.90;1.35;;;;;;;21.07;66.22;95162.03;5073310;28;20177;-64
2022/06/19 07:56:19;;;;;;;7.72;3.72;;;;;;;21.16;67.16;95147.22;5073515;28;20208;-66
2022/06/19 07:58:45;;;;;;;2.00;1.80;;;;;;;21.41;64.60;95219.13;5071840;28;20184;-64
2022/06/19 08:01:10;;;;;;;3.58;1.45;;;;;;;21.44;62.00;95264.53;5073337;28;20258;-64
2022/06/19 08:03:35;;;;;;;5.15;2.95;;;;;;;21.40;63.04;95225.31;5073346;28;20207;-64
2022/06/19 08:06:01;;;;;;;5.38;1.52;;;;;;;21.59;62.82;95231.69;5073002;28;20219;-61
2022/06/19 08:08:29;;;;;;;3.15;1.50;;;;;;;21.61;60.83;95277.09;5072788;28;20184;-61
2022/06/19 08:10:56;;;;;;;1.92;1.70;;;;;;;21.78;63.80;95200.00;5073061;28;20201;-61
2022/06/19 08:13:25;;;;;;;5.90;3.60;;;;;;;21.81;63.23;95204.88;5071450;28;20217;-64
2022/06/19 08:15:53;;;;;;;0.98;0.98;;;;;;;21.96;60.37;95267.75;5064714;23;20320;-64
2022/06/19 08:18:19;;;;;;;3.50;1.55;;;;;;;21.93;58.70;95298.38;5052554;28;20189;-65
2022/06/19 08:20:46;;;;;;;3.28;1.42;;;;;;;21.99;56.57;95339.09;5034525;28;20210;-65
2022/06/19 08:23:13;;;;;;;1.83;1.50;;;;;;;22.06;58.41;95278.59;5052510;28;20177;-60
2022/06/19 08:25:39;;;;;;;1.63;1.48;;;;;;;22.00;56.44;95305.22;5052741;28;20699;-65
2022/06/19 08:28:05;;;;;;;2.22;1.27;;;;;;;22.11;57.98;95270.28;5052300;28;20651;-64
2022/06/19 08:30:37;;;;;;;4.88;1.40;;;;;;;22.11;60.38;95208.91;5052438;28;20201;-64
2022/06/19 08:33:04;;;;;;;1.67;1.25;;;;;;;22.25;60.61;95192.50;5052426;28;20177;-64
2022/06/19 08:35:33;;;;;;;1.77;1.60;;;;;;;22.30;57.45;95277.44;5052490;28;20213;-61
2022/06/19 08:38:05;;;;;;;1.20;1.10;;;;;;;22.37;58.71;95234.22;5052483;28;20182;-65
2022/06/19 08:40:45;;;;;;;3.72;2.35;;;;;;;22.35;60.84;95169.66;5034373;28;20214;-65
2022/06/19 08:43:20;;;;;;;2.47;1.52;;;;;;;22.48;61.99;95136.03;5034210;28;20185;-65
2022/06/19 08:46:23;;;;;;;5.93;1.70;;;;;;;22.58;56.75;95280.91;5052357;28;20205;-61
2022/06/19 08:48:57;;;;;;;5.05;1.88;;;;;;;22.69;56.29;95257.03;5052146;28;20235;-61
2022/06/19 08:51:48;;;;;;;1.67;1.42;;;;;;;22.73;55.74;95291.16;5052422;28;20299;-62
2022/06/19 08:54:20;;;;;;;2.30;1.35;;;;;;;22.74;54.57;95295.38;5052196;28;20174;-62
2022/06/19 08:57:10;;;;;;;8.25;2.30;;;;;;;22.83;55.31;95271.69;5051916;28;20324;-61
2022/06/19 08:59:36;;;;;;;3.92;1.40;;;;;;;22.78;56.74;95239.53;5051356;28;20229;-61
2022/06/19 09:02:28;;;;;;;1.27;1.10;;;;;;;23.06;51.66;95370.81;5052086;28;20196;-61
2022/06/19 09:05:36;;;;;;;2.55;1.88;;;;;;;23.06;55.82;95230.75;5052056;28;20209;-61
2022/06/19 09:08:30;;;;;;;4.13;2.53;;;;;;;23.13;53.29;95293.81;5051780;28;20255;-61
2022/06/19 09:11:46;;;;;;;3.47;1.50;;;;;;;23.45;52.66;95315.81;5052201;28;20213;-61
2022/06/19 09:14:27;;;;;;;1.60;1.50;;;;;;;23.69;54.42;95257.38;4990106;28;20184;-64
2022/06/19 09:17:11;;;;;;;1.42;1.33;;;;;;;23.55;48.61;95404.53;4990320;28;20271;-61
2022/06/19 09:20:18;;;;;;;5.93;1.15;;;;;;;23.89;48.18;95398.50;5015946;28;20216;-60
2022/06/19 09:23:35;;;;;;;6.10;1.30;;;;;;;23.76;48.30;95333.50;4990222;28;20626;-60
2022/06/19 09:26:17;;;;;;;1.85;1.00;;;;;;;24.12;48.75;95342.66;4981583;28;20238;-60
2022/06/19 09:29:02;;;;;;;2.00;1.27;;;;;;;24.30;49.08;95308.28;5047657;28;20279;-61
2022/06/19 09:31:42;;;;;;;1.52;1.13;;;;;;;24.36;45.24;95405.50;5051266;28;20185;-61
2022/06/19 09:34:31;;;;;;;2.25;1.40;;;;;;;24.22;47.62;95300.69;5033554;28;20177;-60
2022/06/19 09:37:11;;;;;;;4.78;2.47;;;;;;;24.19;46.21;95347.88;5020523;28;20676;-61
2022/06/19 09:39:58;;;;;;;2.25;1.40;;;;;;;24.33;46.33;95343.50;5051501;28;20205;-60
2022/06/19 09:42:58;;;;;;;1.38;1.23;;;;;;;24.41;46.19;95345.91;5051499;28;20211;-61
2022/06/19 09:45:26;;;;;;;1.02;0.80;;;;;;;24.45;44.07;95384.31;5040233;23;20258;-61
2022/06/19 09:48:14;;;;;;;1.50;0.93;;;;;;;24.48;45.07;95342.34;5031390;28;20206;-61
2022/06/19 09:51:11;;;;;;;2.28;1.10;;;;;;;24.58;46.42;95295.13;5031554;28;20206;-61
2022/06/19 09:53:58;;;;;;;1.48;1.30;;;;;;;24.65;47.26;95254.31;5022813;28;20688;-60
2022/06/19 09:56:42;;;;;;;1.75;1.30;;;;;;;24.90;48.66;95206.69;5031396;28;20251;-60
2022/06/19 09:59:13;;;;;;;1.63;1.20;;;;;;;25.06;45.47;95309.53;5031544;28;20170;-60
2022/06/19 10:01:42;;;;;;;1.20;1.20;;;;;;;25.08;42.81;95390.00;5031658;28;20183;-60
2022/06/19 10:04:33;;;;;;;4.22;1.40;;;;;;;24.96;44.30;95319.56;5031485;28;20205;-61
2022/06/19 10:07:03;;;;;;;6.03;1.65;;;;;;;25.34;44.10;95314.47;5031665;28;20290;-60
2022/06/19 10:09:35;;;;;;;3.05;1.20;;;;;;;25.22;41.85;95397.63;5032399;28;20204;-60
2022/06/19 10:12:03;;;;;;;3.70;1.30;;;;;;;25.44;42.10;95313.09;5035900;28;20183;-60
2022/06/19 10:14:38;;;;;;;2.00;1.17;;;;;;;25.54;40.96;95351.72;5034722;28;20396;-64
2022/06/19 10:17:39;;;;;;;2.25;1.55;;;;;;;25.69;43.13;95258.50;5034891;28;20683;-64
2022/06/19 10:20:16;;;;;;;2.75;1.80;;;;;;;25.88;46.99;95165.59;5026201;28;20284;-59
2022/06/19 10:23:03;;;;;;;4.53;1.33;;;;;;;25.75;44.09;95229.00;5035159;28;20177;-60
2022/06/19 10:25:57;;;;;;;1.50;1.17;;;;;;;25.87;43.04;95253.41;5034810;28;20230;-60
2022/06/19 10:28:47;;;;;;;0.95;0.95;;;;;;;25.72;41.96;95235.44;5034889;28;20582;-60
2022/06/19 10:31:15;;;;;;;1.42;1.15;;;;;;;25.71;40.52;95248.66;5035140;28;20230;-64
2022/06/19 10:33:56;;;;;;;2.83;1.40;;;;;;;26.07;45.85;95125.56;5034853;28;20183;-61
2022/06/19 10:36:39;;;;;;;1.75;1.40;;;;;;;26.10;43.42;95179.91;5034915;28;20526;-64
2022/06/19 10:39:27;;;;;;;1.00;1.00;;;;;;;26.38;44.19;95168.00;5034494;28;20175;-63
2022/06/19 10:42:07;;;;;;;1.30;1.00;;;;;;;25.89;42.43;95206.28;5035609;28;20746;-60
2022/06/19 10:45:07;;;;;;;1.65;1.05;;;;;;;25.94;41.58;95212.44;5034812;28;20255;-63
2022/06/19 10:47:59;;;;;;;2.03;1.40;;;;;;;25.94;42.97;95170.75;5033977;28;20214;-63
2022/06/19 10:50:51;;;;;;;1.27;0.82;;;;;;;26.26;40.91;95229.69;5034360;28;20241;-64
2022/06/19 10:53:31;;;;;;;4.32;1.50;;;;;;;26.13;41.39;95211.56;5034276;28;20174;-61
2022/06/19 10:56:31;;;;;;;1.33;1.23;;;;;;;26.50;42.25;95176.72;5034199;28;20213;-61
2022/06/19 10:58:59;;;;;;;3.30;0.88;;;;;;;26.81;39.96;95222.03;5018179;28;20190;-60
2022/06/19 11:04:23;;;;;;;1.67;0.98;;;;;;;26.26;42.09;95159.28;5034373;28;20189;-63
2022/06/19 11:07:08;;;;;;;1.30;1.20;;;;;;;25.90;42.54;95150.56;5034109;28;20317;-60
2022/06/19 11:09:47;;;;;;;2.58;1.00;;;;;;;26.22;44.95;95089.56;5034020;28;20298;-63
2022/06/19 11:12:18;;;;;;;1.50;0.93;;;;;;;26.45;45.29;95081.88;5033847;28;20186;-63
2022/06/19 11:14:55;;;;;;;1.52;1.30;;;;;;;26.82;44.00;95103.59;5076065;23;20245;-64
2022/06/19 11:17:36;;;;;;;25.55;1.60;;;;;;;26.88;39.36;95223.59;5074020;28;20639;-63
2022/06/19 11:20:16;;;;;;;2.88;1.10;;;;;;;26.80;38.05;95233.50;5074065;28;20197;-60
2022/06/19 11:22:45;;;;;;;1.95;1.20;;;;;;;26.69;38.64;95202.84;5073460;28;20189;-64
2022/06/19 11:25:28;;;;;;;1.02;0.80;;;;;;;26.94;41.22;95138.38;5074062;28;20216;-63
2022/06/19 11:28:07;;;;;;;0.95;0.93;;;;;;;27.06;39.26;95189.66;5073832;28;20315;-60
2022/06/19 11:30:44;;;;;;;1.85;1.27;;;;;;;27.13;46.18;95002.38;5073988;28;20291;-65
2022/06/19 11:33:14;;;;;;;2.05;1.20;;;;;;;27.70;40.24;95151.69;5073941;28;20196;-63
2022/06/19 11:35:45;;;;;;;2.53;1.00;;;;;;;28.34;35.53;95253.75;5073567;28;20193;-60
2022/06/19 11:38:12;;;;;;;1.75;0.90;;;;;;;28.71;34.38;95272.72;5073901;28;20192;-60
2022/06/19 11:40:42;;;;;;;2.42;0.90;;;;;;;28.25;34.55;95236.78;5073482;28;20197;-60
2022/06/19 11:43:26;;;;;;;2.35;1.17;;;;;;;27.87;35.57;95190.03;5072542;28;20185;-63
2022/06/19 11:46:02;;;;;;;1.15;1.02;;;;;;;27.27;38.11;95110.84;5073382;28;20219;-63
2022/06/19 11:48:27;;;;;;;2.83;1.30;;;;;;;27.66;37.97;95127.81;5073709;28;20243;-63
2022/06/19 11:50:55;;;;;;;1.83;1.00;;;;;;;28.28;35.63;95214.59;5073470;28;20201;-64
2022/06/19 11:53:41;;;;;;;1.30;1.20;;;;;;;28.60;34.60;95201.03;5072345;28;20177;-60
2022/06/19 11:56:36;;;;;;;3.17;1.08;;;;;;;28.82;37.90;95106.97;5073421;28;20200;-63